Irvine, KY (40472)

12:16 AM EDT on July 30, 2016 (GMT -0400)
Irvine, Ky. | | Change Station

Elev 719 ft 37.69 °N, 83.96 °W | Updated 6 seconds ago

Rain
Rain
71.9 °F
Feels Like 71.9 °F
N
0.0
Wind Variable Wind from SSE
Gusts 1.0 mph

Today
High -- | Low -- °F
--% Chance of Precip.
Yesterday
High -- | Low -- °F
Precip. -- in
Pressure 29.98 in
Visibility 10.0 miles
Clouds Scattered Clouds 4200 ft
Scattered Clouds 5000 ft
Dew Point 71 °F
Humidity 97%
Rainfall 0.01 in
Snow Depth Not available.
6:38 AM 8:45 PM
Waning Crescent, 16% visible
METAR KIOB 300355Z AUTO 24005KT 10SM SCT042 SCT050 22/21 A2998 RMK AO2
Pressure 29.98 in
Visibility 10.0 miles
Clouds Scattered Clouds 4200 ft
Scattered Clouds 5000 ft
Dew Point 71 °F
Humidity 97%
Rainfall 0.01 in
Snow Depth Not available.
6:38 AM 8:45 PM
Waning Crescent, 16% visible
METAR KIOB 300355Z AUTO 24005KT 10SM SCT042 SCT050 22/21 A2998 RMK AO2

10-Day Weather Forecast

Almanac

Astronomy

Jul. 30, 2016 Rise Set
Actual Time
Civil Twilight
Nautical Twilight
Astronomical Twilight
Moon
Length of Visible Light
Length of Day
Tomorrow will be .
, % of the Moon is Illuminated

Today's Extremes

State Highs State Lows

Community

WunderPhotos

Upload Photos

1,928,505 photos uploaded!

WunderBlog® & News

Nearby

Air Quality

  Air Quality AQ Index Pollutant
Not available.

Snow Depth

Station Depth Elevation

Earthquake Activity

City Distance Mag. Time & Date
Minimum magnitude displayed is 2.5.

Coastal Water Temperatures

Place Temperature

Stations

Nearby Weather Stations

Station Location Temp. Windchill Dew Point Humidity Wind Precip. Elev Updated Type
                   

Watches & Warnings

There are currently no watches in effect.